Latest Weather Observations for Grafton Airport

IDN60801

Issued at 3:04 am EDT Tuesday 27 January 2015 (issued every 30 minutes, with the page automatically refreshed every 10 minutes)

About weather observations | Map of weather stations | Latest weather observations for NSW | Other Formats
Station Details ID: 058161 Name: GRAFTON AIRPORT AWS Lat: -29.76 Lon: 153.03 Height: 25.09 m
Data from the previous 72 hours. | See also: Recent months for locations in New South Wales
Date/Time
EDT
Temp
°C
App
Temp
°C
Dew
Point
Rel
Hum
%
Delta-T
°C
Wind Press
QNH
hPa
Press
MSL
hPa
Rain
since 9 am
mm
Dir
 
Spd
km/h
Gust
km/h
Spd
kts
Gust
kts
27/02:37am 21.7 23.6 20.5 93 0.8 SE 11 15 6 8 1009.3 1009.1 0.8
27/02:30am 21.8 23.4 20.8 94 0.7 SE 13 17 7 9 1009.4 1009.2 0.4
27/02:00am 22.0 23.5 20.6 92 0.9 SE 13 17 7 9 1009.5 1009.3 0.0
27/01:30am 22.1 24.4 20.6 91 1.0 SE 9 15 5 8 1009.9 1009.7 0.0
27/01:00am 22.5 23.6 20.4 88 1.4 SSE 15 20 8 11 1010.0 1009.8 0.0
27/12:30am 23.0 23.4 20.9 88 1.4 S 20 28 11 15 1010.1 1009.9 0.0
27/12:00am 23.1 26.4 21.9 93 0.8 SW 7 11 4 6 1009.8 1009.6 0.0
 
Date/Time
EDT
Temp
°C
App
Temp
°C
Dew
Point
Rel
Hum
%
Delta-T
°C
Wind Press
QNH
hPa
Press
MSL
hPa
Rain
since 9 am
mm
Dir
 
Spd
km/h
Gust
km/h
Spd
kts
Gust
kts
26/11:30pm 23.3 26.6 21.9 92 0.9 SSW 7 9 4 5 1009.8 1009.6 0.0
26/11:00pm 22.8 25.7 21.8 94 0.7 S 9 13 5 7 1009.9 1009.7 0.0
26/10:30pm 22.3 26.0 20.8 91 1.0 SW 2 6 1 3 1010.2 1010.1 0.0
26/10:00pm 22.2 24.4 20.5 90 1.1 S 9 11 5 6 1009.9 1009.7 0.0
26/09:30pm 22.9 24.1 19.9 83 1.9 ESE 13 20 7 11 1010.1 1009.9 0.0
26/09:00pm 23.9 24.0 20.4 81 2.3 SE 20 35 11 19 1010.0 1009.8 0.0
26/08:30pm 24.7 28.5 22.4 87 1.5 SSE 6 9 3 5 1009.9 1009.7 0.0
26/08:00pm 24.9 28.4 22.2 85 1.8 SSW 7 9 4 5 1010.0 1009.8 0.0
26/07:30pm 25.5 30.1 21.8 80 2.5 CALM 0 0 0 0 1010.1 1009.9 0.0
26/07:00pm 25.7 29.5 21.6 78 2.7 ESE 4 9 2 5 1009.5 1009.3 0.0
26/06:30pm 25.6 28.2 21.9 80 2.5 SE 11 17 6 9 1008.5 1008.3 0.0
26/06:00pm 26.0 28.2 21.9 78 2.7 ESE 13 26 7 14 1008.2 1008.0 0.0
26/05:30pm 26.1 28.4 22.0 78 2.7 SSE 13 17 7 9 1008.5 1008.3 0.0
26/05:00pm 25.9 28.6 22.2 80 2.5 SE 11 15 6 8 1007.6 1007.4 0.0
26/04:30pm 25.9 28.8 21.8 78 2.7 SE 9 19 5 10 1007.8 1007.6 0.0
26/04:00pm 26.2 28.4 21.8 77 2.9 SE 13 20 7 11 1008.5 1008.3 0.0
26/03:30pm 26.6 27.8 21.4 73 3.5 SE 17 26 9 14 1008.0 1007.8 0.0
26/03:00pm 27.4 28.8 21.0 68 4.2 ESE 15 24 8 13 1007.8 1007.6 0.0
26/02:30pm 28.2 29.1 21.5 67 4.5 ESE 19 32 10 17 1007.8 1007.6 0.0
26/02:00pm 29.2 30.1 21.9 64 4.9 SE 20 32 11 17 1007.3 1007.1 0.0
26/01:30pm 29.7 31.3 22.9 67 4.7 SE 19 28 10 15 1007.5 1007.3 0.0
26/01:00pm 30.0 30.1 20.3 56 6.4 ESE 20 26 11 14 1008.0 1007.8 0.0
26/12:30pm 30.4 31.4 21.8 60 5.8 SE 19 30 10 16 1008.3 1008.1 0.0
26/12:00pm 29.9 30.8 21.6 61 5.6 SE 19 28 10 15 1008.6 1008.4 0.0
26/11:30am 30.1 32.4 22.0 62 5.5 SE 13 20 7 11 1008.7 1008.5 0.0
26/11:00am 29.5 31.4 21.4 61 5.4 SE 13 20 7 11 1008.8 1008.6 0.0
26/10:30am 29.6 31.8 22.6 66 4.8 SE 15 20 8 11 1008.7 1008.5 0.0
26/10:00am 29.1 32.2 23.5 72 3.9 SSE 13 22 7 12 1008.6 1008.4 0.0
26/09:30am 28.2 31.1 23.8 77 3.0 SE 15 20 8 11 1008.4 1008.2 0.0
26/09:00am 27.0 30.3 23.9 83 2.1 S 13 17 7 9 1008.4 1008.2 11.6
26/08:30am 25.2 28.1 22.5 85 1.8 S 11 15 6 8 1008.5 1008.3 11.6
26/08:00am 23.8 28.4 23.1 96 0.5 SSW 4 9 2 5 1008.3 1008.1 11.6
26/07:30am 23.1 26.9 22.4 96 0.5 SW 6 9 3 5 1008.1 1007.9 11.6
26/07:00am 23.0 28.0 22.5 97 0.3 CALM 0 6 0 3 1007.7 1007.5 11.6
26/06:30am 22.8 26.5 22.5 98 0.2 SE 7 11 4 6 1007.4 1007.2 11.6
26/06:00am 22.9 28.0 22.6 98 0.2 CALM 0 0 0 0 1006.5 1006.3 11.6
26/05:30am 22.9 27.6 22.6 98 0.2 N 2 7 1 4 1006.2 1006.0 11.6
26/05:00am 22.8 27.8 22.5 98 0.2 CALM 0 0 0 0 1005.8 1005.6 11.6
26/04:30am 22.6 27.4 22.1 97 0.3 CALM 0 0 0 0 1005.7 1005.5 11.4
26/04:00am 22.8 27.7 22.3 97 0.3 CALM 0 7 0 4 1005.6 1005.4 11.4
26/03:52am 22.9 27.1 22.4 97 0.3 SE 4 9 2 5 1005.5 1005.3 11.4
26/03:30am 22.7 26.8 22.2 97 0.3 E 4 9 2 5 1005.6 1005.4 10.6
26/03:19am 22.8 27.7 22.3 97 0.3 CALM 0 0 0 0 1005.6 1005.4 7.8
26/03:00am 22.7 27.5 22.2 97 0.3 CALM 0 0 0 0 1005.7 1005.5 7.4
26/02:30am 22.5 27.2 22.0 97 0.3 CALM 0 0 0 0 1005.8 1005.6 7.4
26/02:00am 22.4 27.2 22.1 98 0.2 CALM 0 0 0 0 1005.9 1005.7 7.4
26/01:30am 22.3 27.0 22.0 98 0.2 CALM 0 0 0 0 1006.2 1006.0 7.4
26/01:00am 22.2 26.5 21.9 98 0.2 W 2 7 1 4 1006.2 1006.0 7.4
26/12:30am 22.4 25.9 21.9 97 0.3 SW 6 11 3 6 1006.4 1006.2 7.4
26/12:00am 22.4 25.7 21.9 97 0.3 SSW 7 9 4 5 1006.5 1006.3 7.4
 
Date/Time
EDT
Temp
°C
App
Temp
°C
Dew
Point
Rel
Hum
%
Delta-T
°C
Wind Press
QNH
hPa
Press
MSL
hPa
Rain
since 9 am
mm
Dir
 
Spd
km/h
Gust
km/h
Spd
kts
Gust
kts
25/11:30pm 22.6 26.5 21.9 96 0.5 SE 4 7 2 4 1006.9 1006.7 7.4
25/11:00pm 22.6 26.9 21.9 96 0.5 SSW 2 7 1 4 1007.0 1006.8 7.4
25/10:30pm 22.9 27.7 22.1 95 0.5 CALM 0 0 0 0 1006.9 1006.7 7.4
25/10:00pm 23.0 27.3 22.0 94 0.7 SSW 2 6 1 3 1006.9 1006.7 7.4
25/09:30pm 23.2 27.9 22.0 93 0.8 CALM 0 6 0 3 1006.7 1006.5 7.4
25/09:27pm 23.2 27.7 22.2 94 0.7 W 2 6 1 3 1006.7 1006.5 7.4
25/09:04pm 23.2 26.9 22.2 94 0.7 W 6 7 3 4 1006.2 1006.0 7.4
25/09:00pm 23.2 26.9 22.2 94 0.7 WNW 6 7 3 4 1006.3 1006.1 7.4
25/08:30pm 23.3 26.6 22.5 95 0.5 SSE 9 11 5 6 1005.8 1005.6 7.4
25/08:00pm 23.2 26.8 22.0 93 0.8 SW 6 13 3 7 1005.4 1005.2 7.2
25/07:30pm 23.3 26.8 22.1 93 0.8 ESE 7 9 4 5 1004.3 1004.1 7.0
25/07:00pm 23.4 26.5 21.5 89 1.3 ENE 7 15 4 8 1004.4 1004.2 6.6
25/06:54pm 23.5 26.2 21.4 88 1.4 S 9 17 5 9 1004.5 1004.3 6.6
25/06:31pm 24.1 24.3 20.6 81 2.3 SW 20 30 11 16 1005.0 1004.8 2.4
25/06:30pm 24.6 24.9 20.7 79 2.6 SW 20 30 11 16 1004.9 1004.7 1.0
25/06:00pm 26.4 28.8 18.8 63 4.9 WNW 4 9 2 5 1003.5 1003.3 0.0
25/05:30pm 27.7 27.3 18.1 56 6.1 SE 17 26 9 14 1003.6 1003.4 0.0
25/05:00pm 29.2 29.8 18.6 52 6.8 SE 13 28 7 15 1003.9 1003.7 0.0
25/04:30pm 29.7 27.7 19.1 53 6.9 SSE 28 46 15 25 1003.5 1003.3 0.0
25/04:24pm 29.7 28.0 18.2 50 7.4 ESE 24 46 13 25 1003.3 1003.1 0.0
25/04:00pm 31.6 30.4 19.2 47 8.1 ESE 24 35 13 19 1002.3 1002.1 0.0
25/03:30pm 28.2 25.9 20.2 62 5.3 SE 32 54 17 29 1003.3 1003.1 0.0
25/03:09pm 29.3 28.4 17.8 50 7.3 SW 19 63 10 34 1003.3 1003.1 0.0
25/03:07pm 32.0 32.3 17.8 42 9.1 W 13 57 7 31 1003.0 1002.8 0.0
25/03:00pm 34.3 33.9 16.2 34 11.5 NNW 13 19 7 10 1002.2 1002.0 0.0
25/02:30pm 34.8 35.1 19.6 40 10.1 N 17 26 9 14 1002.1 1001.9 0.0
25/02:00pm 34.5 35.8 19.3 40 10.1 NNW 11 15 6 8 1002.3 1002.1 0.0
25/01:30pm 33.9 36.6 21.3 47 8.5 N 9 19 5 10 1002.8 1002.6 0.0
25/01:00pm 33.4 35.8 20.9 48 8.4 N 9 15 5 8 1003.2 1003.0 0.0
25/12:30pm 32.4 35.1 21.3 52 7.5 NNW 9 19 5 10 1003.5 1003.3 0.0
25/12:00pm 32.0 34.9 21.8 54 6.9 NW 9 15 5 8 1004.0 1003.8 0.0
25/11:30am 30.9 31.9 20.2 53 7.1 N 15 30 8 16 1004.2 1004.0 0.0
25/11:00am 30.6 32.9 21.4 58 6.2 WNW 11 20 6 11 1004.5 1004.3 0.0
25/10:30am 29.3 31.4 21.0 61 5.5 N 11 20 6 11 1004.7 1004.5 0.0
25/10:00am 28.4 31.4 21.9 68 4.4 N 9 13 5 7 1004.9 1004.7 0.0
25/09:30am 27.4 30.2 22.3 73 3.4 N 11 17 6 9 1005.1 1004.9 0.0
25/09:00am 26.5 29.6 22.1 77 3.0 N 9 13 5 7 1005.0 1004.8 1.0
25/08:30am 25.1 27.5 21.6 81 2.3 N 11 15 6 8 1005.1 1004.9 1.0
25/08:00am 23.8 26.9 22.1 90 1.1 N 9 13 5 7 1005.3 1005.1 1.0
25/07:45am 23.1 26.1 21.9 93 0.8 N 9 13 5 7 1005.1 1004.9 1.0
25/07:30am 22.7 25.7 22.0 96 0.5 N 9 13 5 7 1005.1 1004.9 1.0
25/07:00am 22.1 25.3 21.6 97 0.3 NNE 7 9 4 5 1005.0 1004.8 1.0
25/06:50am 22.0 25.4 21.7 98 0.2 NNE 6 9 3 5 1005.0 1004.8 1.0
25/06:30am 21.5 25.7 21.0 97 0.3 CALM 0 0 0 0 1004.9 1004.7 1.0
25/06:00am 21.7 25.3 21.2 97 0.3 S 4 7 2 4 1004.8 1004.6 1.0
25/05:30am 21.5 25.6 20.8 96 0.5 CALM 0 0 0 0 1004.3 1004.1 1.0
25/05:00am 21.6 25.8 20.9 96 0.5 CALM 0 0 0 0 1004.3 1004.1 1.0
25/04:30am 21.8 26.0 21.0 95 0.5 CALM 0 0 0 0 1004.3 1004.1 1.0
25/04:00am 22.1 26.5 21.3 95 0.5 CALM 0 0 0 0 1004.4 1004.2 1.0
25/03:30am 22.0 25.8 21.0 94 0.7 NE 2 7 1 4 1004.2 1004.0 1.0
25/03:00am 22.3 26.5 20.9 92 0.9 CALM 0 7 0 4 1004.3 1004.1 1.0
25/02:30am 22.7 27.1 21.3 92 0.9 CALM 0 0 0 0 1004.8 1004.6 1.0
25/02:00am 23.0 27.4 21.3 90 1.1 CALM 0 0 0 0 1005.1 1004.9 1.0
25/01:30am 23.6 28.2 21.7 89 1.3 CALM 0 0 0 0 1005.7 1005.5 1.0
25/01:00am 23.7 28.1 21.4 87 1.5 CALM 0 0 0 0 1006.0 1005.8 1.0
25/12:30am 23.8 28.4 21.7 88 1.4 CALM 0 0 0 0 1006.2 1006.0 1.0
25/12:00am 24.0 28.7 21.9 88 1.4 CALM 0 0 0 0 1006.4 1006.2 1.0
 
Date/Time
EDT
Temp
°C
App
Temp
°C
Dew
Point
Rel
Hum
%
Delta-T
°C
Wind Press
QNH
hPa
Press
MSL
hPa
Rain
since 9 am
mm
Dir
 
Spd
km/h
Gust
km/h
Spd
kts
Gust
kts
24/11:30pm 24.0 28.6 21.7 87 1.5 CALM 0 0 0 0 1006.3 1006.1 1.0
24/11:00pm 24.1 28.6 21.6 86 1.7 CALM 0 0 0 0 1006.6 1006.4 1.0
24/10:30pm 24.2 28.7 21.5 85 1.8 CALM 0 0 0 0 1006.5 1006.3 1.0
24/10:00pm 24.4 28.6 20.9 81 2.3 CALM 0 0 0 0 1006.6 1006.4 1.0
24/09:30pm 24.6 28.9 21.1 81 2.3 CALM 0 0 0 0 1006.1 1005.9 1.0
24/09:00pm 24.9 28.2 20.8 78 2.7 ENE 4 6 2 3 1005.6 1005.4 1.0
24/08:30pm 25.1 27.8 20.6 76 2.9 E 7 9 4 5 1005.1 1004.9 1.0
24/08:00pm 25.4 28.0 20.4 74 3.3 E 7 9 4 5 1004.9 1004.7 1.0
24/07:30pm 25.9 27.6 20.2 71 3.7 E 11 15 6 8 1004.8 1004.6 1.0
24/07:00pm 26.4 28.2 20.3 69 4.0 ESE 11 17 6 9 1004.6 1004.4 1.0
24/06:30pm 27.4 28.3 20.0 64 4.8 E 15 22 8 12 1004.5 1004.3 1.0
24/06:00pm 28.9 30.3 20.4 60 5.6 E 13 19 7 10 1004.5 1004.3 1.0
24/05:30pm 29.3 30.5 19.9 57 6.2 SE 13 19 7 10 1004.5 1004.3 1.0
24/05:00pm 29.4 30.0 19.4 55 6.5 ESE 15 24 8 13 1004.7 1004.5 1.0
24/04:30pm 29.0 29.8 19.9 58 6.0 ESE 15 24 8 13 1004.8 1004.6 1.0
24/04:00pm 29.6 30.8 19.9 56 6.4 E 13 22 7 12 1005.1 1004.9 1.0
24/03:30pm 29.2 29.9 18.9 53 6.7 E 13 20 7 11 1005.5 1005.3 1.0
24/03:00pm 28.8 29.9 18.9 55 6.4 ESE 11 19 6 10 1005.9 1005.7 1.0
24/02:30pm 29.8 32.0 20.4 57 6.2 SSE 9 15 5 8 1005.9 1005.7 1.0
24/02:00pm 28.7 30.0 18.5 54 6.6 ESE 9 17 5 9 1006.2 1006.0 1.0
24/01:30pm 28.1 29.9 19.6 60 5.5 S 9 13 5 7 1006.6 1006.4 1.0
24/01:00pm 28.1 30.7 20.1 62 5.3 SW 6 11 3 6 1006.9 1006.7 1.0
24/12:30pm 27.9 29.8 20.5 64 4.9 S 11 17 6 9 1007.0 1006.8 1.0
24/12:00pm 27.3 28.0 19.6 62 5.0 S 15 20 8 11 1007.2 1007.0 1.0
24/11:30am 26.9 27.6 20.5 68 4.2 S 17 24 9 13 1007.7 1007.5 1.0
24/11:21am 26.5 28.9 22.3 78 2.8 SSE 13 20 7 11 1007.7 1007.5 1.0
24/11:03am 24.1 24.5 21.0 83 2.0 SSE 20 30 11 16 1007.9 1007.7 0.8
24/11:00am 24.3 24.4 20.4 79 2.5 SSE 20 30 11 16 1007.9 1007.7 0.0
24/10:30am 26.4 28.8 20.9 72 3.6 SW 9 13 5 7 1007.9 1007.7 0.0
24/10:00am 25.5 27.5 20.7 75 3.2 SSW 11 15 6 8 1008.0 1007.8 0.0
24/09:30am 24.7 27.1 20.8 79 2.6 SSW 9 15 5 8 1008.0 1007.8 0.0
24/09:00am 23.6 26.4 20.9 85 1.8 SW 7 13 4 7 1008.1 1007.9 0.8
24/08:30am 22.5 24.7 20.4 88 1.4 SW 9 11 5 6 1008.2 1008.0 0.8
24/08:00am 22.1 25.0 20.6 91 1.0 SSW 6 7 3 4 1008.0 1007.8 0.8
24/07:30am 21.7 24.3 20.5 93 0.8 S 7 9 4 5 1008.0 1007.8 0.8
24/07:00am 21.1 23.8 20.3 95 0.5 SSW 6 9 3 5 1007.8 1007.6 0.8
24/06:30am 20.9 23.3 20.1 95 0.5 SW 7 9 4 5 1007.5 1007.3 0.8
24/06:00am 20.8 23.1 19.8 94 0.6 SW 7 9 4 5 1007.2 1007.0 0.8
24/05:30am 20.9 23.2 19.9 94 0.6 SSW 7 9 4 5 1006.7 1006.5 0.8
24/05:00am 21.1 23.1 19.9 93 0.8 SSW 9 11 5 6 1006.5 1006.3 0.8
24/04:30am 21.2 23.2 20.0 93 0.8 SSW 9 13 5 7 1006.6 1006.4 0.8
24/04:00am 21.2 23.2 20.0 93 0.8 SW 9 13 5 7 1006.5 1006.3 0.8
24/03:30am 21.5 23.6 20.1 92 0.9 SSW 9 13 5 7 1006.5 1006.3 0.8

Other Formats:

Comma delimited format used in spreadsheet applications
http://www.bom.gov.au/fwo/IDN60801/IDN60801.95570.axf

JavaScript Object Notation format (JSON) in row-major order
http://www.bom.gov.au/fwo/IDN60801/IDN60801.95570.json